createdAt,value
2018-11-29T00:02:25.900Z,4.50
2018-11-29T00:04:54.753Z,4.50
2018-11-29T00:07:23.599Z,4.50
2018-11-29T00:09:52.429Z,4.50
2018-11-29T00:12:21.255Z,4.50
2018-11-29T00:14:50.106Z,4.50
2018-11-29T00:17:18.949Z,4.50
2018-11-29T00:19:47.786Z,4.50
2018-11-29T00:22:16.616Z,4.50
2018-11-29T00:24:45.476Z,4.60
2018-11-29T00:27:15.045Z,4.60
2018-11-29T00:29:43.889Z,4.60
2018-11-29T00:32:12.731Z,4.60
2018-11-29T00:34:41.566Z,4.60
2018-11-29T00:37:10.412Z,4.60
2018-11-29T00:39:39.259Z,4.70
2018-11-29T00:42:08.107Z,4.70
2018-11-29T00:44:37.685Z,4.70
2018-11-29T00:47:06.555Z,4.70
2018-11-29T00:49:35.396Z,4.70
2018-11-29T00:52:04.243Z,4.70
2018-11-29T00:54:33.079Z,4.80
2018-11-29T00:57:01.936Z,4.80
2018-11-29T00:59:30.762Z,4.80
2018-11-29T01:01:59.597Z,4.80
2018-11-29T01:04:28.435Z,4.80
2018-11-29T01:06:58.011Z,4.80
2018-11-29T01:09:26.873Z,4.80
2018-11-29T01:11:55.699Z,4.80
2018-11-29T01:14:24.539Z,4.80
2018-11-29T01:16:53.388Z,4.90
2018-11-29T01:19:22.281Z,4.90
2018-11-29T01:21:51.098Z,4.90
2018-11-29T01:24:19.939Z,4.90
2018-11-29T01:26:48.782Z,4.80
2018-11-29T01:29:17.620Z,4.80
2018-11-29T01:31:46.461Z,4.80
2018-11-29T01:34:15.311Z,4.80
2018-11-29T01:36:44.163Z,4.80
2018-11-29T01:39:13.021Z,4.80
2018-11-29T01:41:41.864Z,4.80
2018-11-29T01:44:10.718Z,4.70
2018-11-29T01:46:39.549Z,4.70
2018-11-29T01:49:08.419Z,4.70
2018-11-29T01:51:37.256Z,4.80
2018-11-29T01:56:35.535Z,4.80
2018-11-29T01:59:05.110Z,4.80
2018-11-29T02:01:33.960Z,4.80
2018-11-29T02:04:02.827Z,4.80
2018-11-29T02:06:32.393Z,4.80
2018-11-29T02:09:01.232Z,4.70
2018-11-29T02:11:30.810Z,4.70
2018-11-29T02:14:00.400Z,4.70
2018-11-29T02:16:29.227Z,4.70
2018-11-29T02:18:58.808Z,4.60
2018-11-29T02:21:27.656Z,4.70
2018-11-29T02:23:56.495Z,4.70
2018-11-29T02:26:25.345Z,4.70
2018-11-29T02:28:54.182Z,4.80
2018-11-29T02:31:23.031Z,4.80
2018-11-29T02:33:51.865Z,4.80
2018-11-29T02:36:21.460Z,4.80
2018-11-29T02:38:50.282Z,4.80
2018-11-29T02:41:19.118Z,4.80
2018-11-29T02:43:47.956Z,4.80
2018-11-29T02:46:16.801Z,4.80
2018-11-29T02:48:45.639Z,4.80
2018-11-29T02:51:14.487Z,4.80
2018-11-29T02:53:43.369Z,4.80
2018-11-29T02:56:12.179Z,4.80
2018-11-29T02:58:41.029Z,4.70
2018-11-29T03:01:09.877Z,4.80
2018-11-29T03:03:38.721Z,4.80
2018-11-29T03:06:07.555Z,4.80
2018-11-29T03:08:36.395Z,4.80
2018-11-29T03:11:05.239Z,4.80
2018-11-29T03:13:34.090Z,4.70
2018-11-29T03:16:02.939Z,4.70
2018-11-29T03:18:31.803Z,4.70
2018-11-29T03:21:00.645Z,4.70
2018-11-29T03:23:29.501Z,4.80
2018-11-29T03:25:58.329Z,4.70
2018-11-29T03:28:27.193Z,4.80
2018-11-29T03:30:56.031Z,4.80
2018-11-29T03:33:24.881Z,4.70
2018-11-29T03:35:53.714Z,4.70
2018-11-29T03:38:23.294Z,4.70
2018-11-29T03:40:52.143Z,4.80
2018-11-29T03:43:20.992Z,4.80
2018-11-29T03:45:50.571Z,4.70
2018-11-29T03:48:19.430Z,4.80
2018-11-29T03:50:48.267Z,4.80
2018-11-29T03:53:17.129Z,4.80
2018-11-29T03:55:45.966Z,4.90
2018-11-29T03:58:14.798Z,4.80
2018-11-29T04:00:43.634Z,4.80
2018-11-29T04:03:13.214Z,4.80
2018-11-29T04:05:42.091Z,4.80
2018-11-29T04:08:10.920Z,4.80
2018-11-29T04:10:39.761Z,4.80
2018-11-29T04:13:08.599Z,4.90
2018-11-29T04:15:37.460Z,4.90
2018-11-29T04:18:06.319Z,4.90
2018-11-29T04:20:35.173Z,4.90
2018-11-29T04:23:04.021Z,4.90
2018-11-29T04:25:32.871Z,4.90
2018-11-29T04:28:01.715Z,4.90
2018-11-29T04:30:30.575Z,4.90
2018-11-29T04:32:59.419Z,4.90
2018-11-29T04:35:28.258Z,4.80
2018-11-29T04:37:57.090Z,4.80
2018-11-29T04:40:26.672Z,4.70
2018-11-29T04:42:55.528Z,4.70
2018-11-29T04:45:24.366Z,4.70
2018-11-29T04:47:53.212Z,4.60
2018-11-29T04:50:22.056Z,4.60
2018-11-29T04:52:50.891Z,4.60
2018-11-29T04:55:19.725Z,4.60
2018-11-29T04:57:49.299Z,4.60
2018-11-29T05:00:18.131Z,4.60
2018-11-29T05:02:46.991Z,4.60
2018-11-29T05:05:15.813Z,4.50
2018-11-29T05:07:45.434Z,4.50
2018-11-29T05:10:14.270Z,4.50
2018-11-29T05:12:43.118Z,4.50
2018-11-29T05:15:11.956Z,4.50
2018-11-29T05:17:40.803Z,4.50
2018-11-29T05:20:09.669Z,4.50
2018-11-29T05:25:07.916Z,4.50
2018-11-29T05:27:36.760Z,4.50
2018-11-29T05:30:05.605Z,4.50
2018-11-29T05:32:34.478Z,4.50
2018-11-29T05:35:03.322Z,4.50
2018-11-29T05:37:32.179Z,4.50
2018-11-29T05:40:01.800Z,4.40
2018-11-29T05:42:30.601Z,4.50
2018-11-29T05:44:59.446Z,4.50
2018-11-29T05:47:28.288Z,4.50
2018-11-29T05:49:57.122Z,4.50
2018-11-29T05:52:25.966Z,4.50
2018-11-29T05:54:54.818Z,4.50
2018-11-29T05:57:23.651Z,4.50
2018-11-29T05:59:52.485Z,4.50
2018-11-29T06:02:21.328Z,4.50
2018-11-29T06:04:50.170Z,4.50
2018-11-29T06:07:19.030Z,4.50
2018-11-29T06:09:47.864Z,4.60
2018-11-29T06:12:17.450Z,4.50
2018-11-29T06:14:47.032Z,4.50
2018-11-29T06:17:15.866Z,4.50
2018-11-29T06:19:45.442Z,4.50
2018-11-29T06:22:15.018Z,4.50
2018-11-29T06:24:43.873Z,4.60
2018-11-29T06:27:12.779Z,4.60
2018-11-29T06:29:41.617Z,4.60
2018-11-29T06:32:10.462Z,4.50
2018-11-29T06:34:39.314Z,4.50
2018-11-29T06:37:08.146Z,4.50
2018-11-29T06:39:36.980Z,4.50
2018-11-29T06:42:05.839Z,4.50
2018-11-29T06:44:34.696Z,4.50
2018-11-29T06:47:03.542Z,4.50
2018-11-29T06:49:34.175Z,4.60
2018-11-29T06:52:03.763Z,4.60
2018-11-29T06:54:32.597Z,4.60
2018-11-29T06:57:02.190Z,4.60
2018-11-29T06:59:31.044Z,4.60
2018-11-29T07:01:59.889Z,4.70
2018-11-29T07:04:28.748Z,4.70
2018-11-29T07:06:57.595Z,4.70
2018-11-29T07:09:26.436Z,4.60
2018-11-29T07:11:55.275Z,4.60
2018-11-29T07:14:24.152Z,4.60
2018-11-29T07:16:53.010Z,4.60
2018-11-29T07:19:22.598Z,4.60
2018-11-29T07:21:51.448Z,4.70
2018-11-29T07:24:20.290Z,4.80
2018-11-29T07:26:49.128Z,4.80
2018-11-29T07:29:17.974Z,4.80
2018-11-29T07:31:46.822Z,4.90
2018-11-29T07:34:15.658Z,4.80
2018-11-29T07:36:45.249Z,4.80
2018-11-29T07:39:14.090Z,4.80
2018-11-29T07:41:42.935Z,4.80
2018-11-29T07:44:12.527Z,4.80
2018-11-29T07:46:41.368Z,4.90
2018-11-29T07:49:10.193Z,4.90
2018-11-29T07:51:39.020Z,4.80
2018-11-29T07:54:07.977Z,4.80
2018-11-29T07:56:36.828Z,4.80
2018-11-29T07:59:05.664Z,4.80
2018-11-29T08:01:34.513Z,4.80
2018-11-29T08:04:03.366Z,4.80
2018-11-29T08:06:32.953Z,4.80
2018-11-29T08:09:01.799Z,4.90
2018-11-29T08:11:30.647Z,4.90
2018-11-29T08:14:00.233Z,4.80
2018-11-29T08:16:29.087Z,4.90
2018-11-29T08:18:57.937Z,4.90
2018-11-29T08:21:26.792Z,5.00
2018-11-29T08:23:55.637Z,5.00
2018-11-29T08:26:24.473Z,5.10
2018-11-29T08:28:53.326Z,5.10
2018-11-29T08:31:22.169Z,5.20
2018-11-29T08:33:51.759Z,5.20
2018-11-29T08:36:20.600Z,5.30
2018-11-29T08:38:49.451Z,5.30
2018-11-29T08:41:19.036Z,5.30
2018-11-29T08:43:47.900Z,5.40
2018-11-29T08:46:16.735Z,5.40
2018-11-29T08:48:45.590Z,5.50
2018-11-29T08:51:14.432Z,5.50
2018-11-29T08:53:43.279Z,5.60
2018-11-29T08:56:12.123Z,5.60
2018-11-29T08:58:41.011Z,5.60
2018-11-29T09:01:09.798Z,5.70
2018-11-29T09:03:38.645Z,5.70
2018-11-29T09:06:07.492Z,5.80
2018-11-29T09:08:36.342Z,5.90
2018-11-29T09:11:05.921Z,5.80
2018-11-29T09:16:04.233Z,5.90
2018-11-29T09:18:33.815Z,5.90
2018-11-29T09:21:02.724Z,6.00
2018-11-29T09:23:31.500Z,6.10
2018-11-29T09:26:00.424Z,6.10
2018-11-29T09:28:29.234Z,6.10
2018-11-29T09:30:58.086Z,6.10
2018-11-29T09:33:26.983Z,6.10
2018-11-29T09:35:56.575Z,6.20
2018-11-29T09:38:25.413Z,6.20
2018-11-29T09:40:54.264Z,6.30
2018-11-29T09:43:23.120Z,6.40
2018-11-29T09:45:51.976Z,6.50
2018-11-29T09:48:20.822Z,6.60
2018-11-29T09:50:50.415Z,6.60
2018-11-29T09:53:19.267Z,6.60
2018-11-29T09:55:48.124Z,6.60
2018-11-29T09:58:16.973Z,6.70
2018-11-29T10:00:45.809Z,6.80
2018-11-29T10:03:15.400Z,6.90
2018-11-29T10:05:44.241Z,6.90
2018-11-29T10:08:13.082Z,6.90
2018-11-29T10:10:41.955Z,7.00
2018-11-29T10:15:40.234Z,7.10
2018-11-29T10:18:09.069Z,7.00
2018-11-29T10:20:37.927Z,7.10
2018-11-29T10:23:06.762Z,7.10
2018-11-29T10:25:36.549Z,7.10
2018-11-29T10:28:05.196Z,7.10
2018-11-29T10:30:34.054Z,7.10
2018-11-29T10:33:02.890Z,7.10
2018-11-29T10:35:31.722Z,7.10
2018-11-29T10:38:00.579Z,7.10
2018-11-29T10:40:30.172Z,7.10
2018-11-29T10:42:59.129Z,7.10
2018-11-29T10:45:27.978Z,7.10
2018-11-29T10:47:57.574Z,7.10
2018-11-29T10:50:27.166Z,7.10
2018-11-29T10:52:56.003Z,7.20
2018-11-29T10:55:24.847Z,7.20
2018-11-29T10:57:53.724Z,7.10
2018-11-29T11:00:22.580Z,7.20
2018-11-29T11:02:51.426Z,7.20
2018-11-29T11:05:21.059Z,7.20
2018-11-29T11:07:50.627Z,7.20
2018-11-29T11:10:19.461Z,7.30
2018-11-29T11:12:48.322Z,7.30
2018-11-29T11:15:17.904Z,7.40
2018-11-29T11:17:46.756Z,7.40
2018-11-29T11:20:15.608Z,7.30
2018-11-29T11:22:45.204Z,7.30
2018-11-29T11:25:14.074Z,7.40
2018-11-29T11:27:42.907Z,7.40
2018-11-29T11:30:11.746Z,7.30
2018-11-29T11:32:40.585Z,7.40
2018-11-29T11:35:09.434Z,7.40
2018-11-29T11:37:38.324Z,7.50
2018-11-29T11:40:07.128Z,7.50
2018-11-29T11:42:36.008Z,7.50
2018-11-29T11:45:04.813Z,7.60
2018-11-29T11:47:33.667Z,7.60
2018-11-29T11:50:02.500Z,7.60
2018-11-29T11:52:33.551Z,7.60
2018-11-29T11:55:01.710Z,7.50
2018-11-29T11:57:31.335Z,7.60
2018-11-29T12:00:00.168Z,7.60
2018-11-29T12:02:28.997Z,7.70
2018-11-29T12:04:58.617Z,7.70
2018-11-29T12:07:27.477Z,7.70
2018-11-29T12:09:56.357Z,7.70
2018-11-29T12:12:25.206Z,7.70
2018-11-29T12:14:54.050Z,7.80
2018-11-29T12:17:23.023Z,7.80
2018-11-29T12:19:51.883Z,7.80
2018-11-29T12:22:20.697Z,7.80
2018-11-29T12:24:49.532Z,7.80
2018-11-29T12:27:18.378Z,7.80
2018-11-29T12:29:47.227Z,7.80
2018-11-29T12:32:16.081Z,7.80
2018-11-29T12:34:45.673Z,7.80
2018-11-29T12:37:14.516Z,7.80
2018-11-29T12:39:43.369Z,7.80
2018-11-29T12:42:12.968Z,7.70
2018-11-29T12:44:41.821Z,7.80
2018-11-29T12:47:10.661Z,7.80
2018-11-29T12:49:40.894Z,7.80
2018-11-29T12:52:09.847Z,7.70
2018-11-29T12:54:38.713Z,7.80
2018-11-29T12:57:07.554Z,7.80
2018-11-29T12:59:37.162Z,7.70
2018-11-29T13:02:06.005Z,7.70
2018-11-29T13:04:34.845Z,7.70
2018-11-29T13:07:03.691Z,7.60
2018-11-29T13:09:32.552Z,7.60
2018-11-29T13:12:01.409Z,7.60
2018-11-29T13:14:30.268Z,7.60
2018-11-29T13:16:59.126Z,7.60
2018-11-29T13:19:27.971Z,7.60
2018-11-29T13:21:56.813Z,7.60
2018-11-29T13:24:25.660Z,7.70
2018-11-29T13:26:54.518Z,7.60
2018-11-29T13:29:24.104Z,7.60
2018-11-29T13:31:52.966Z,7.60
2018-11-29T13:34:21.805Z,7.60
2018-11-29T13:36:50.672Z,7.60
2018-11-29T13:39:19.520Z,7.60
2018-11-29T13:41:48.354Z,7.60
2018-11-29T13:44:17.205Z,7.60
2018-11-29T13:46:46.055Z,7.60
2018-11-29T13:49:15.645Z,7.60
2018-11-29T13:51:44.479Z,7.60
2018-11-29T13:54:13.324Z,7.60
2018-11-29T13:56:42.192Z,7.60
2018-11-29T13:59:11.034Z,7.60
2018-11-29T14:01:39.880Z,7.60
2018-11-29T14:04:08.725Z,7.60
2018-11-29T14:06:37.567Z,7.50
2018-11-29T14:09:06.409Z,7.50
2018-11-29T14:11:35.250Z,7.50
2018-11-29T14:14:04.106Z,7.50
2018-11-29T14:16:32.982Z,7.60
2018-11-29T14:19:02.563Z,7.50
2018-11-29T14:21:32.143Z,7.50
2018-11-29T14:24:00.998Z,7.50
2018-11-29T14:26:29.845Z,7.50
2018-11-29T14:28:59.477Z,7.50
2018-11-29T14:31:28.298Z,7.50
2018-11-29T14:33:57.146Z,7.50
2018-11-29T14:36:25.997Z,7.50
2018-11-29T14:38:55.612Z,7.50
2018-11-29T14:41:25.217Z,7.50
2018-11-29T14:43:54.026Z,7.50
2018-11-29T14:46:22.874Z,7.50
2018-11-29T14:48:51.723Z,7.50
2018-11-29T14:51:20.590Z,7.40
2018-11-29T14:53:49.446Z,7.40
2018-11-29T14:56:18.276Z,7.30
2018-11-29T14:58:47.124Z,7.30
2018-11-29T15:01:15.986Z,7.30
2018-11-29T15:03:44.858Z,7.30
2018-11-29T15:06:13.710Z,7.30
2018-11-29T15:08:42.598Z,7.40
2018-11-29T15:11:12.219Z,7.40
2018-11-29T15:13:41.058Z,7.30
2018-11-29T15:16:09.900Z,7.30
2018-11-29T15:18:38.754Z,7.30
2018-11-29T15:21:07.589Z,7.30
2018-11-29T15:23:36.451Z,7.30
2018-11-29T15:26:06.019Z,7.30
2018-11-29T15:28:34.864Z,7.30
2018-11-29T15:31:03.718Z,7.30
2018-11-29T15:33:32.565Z,7.20
2018-11-29T15:36:01.410Z,7.20
2018-11-29T15:38:30.260Z,7.20
2018-11-29T15:40:59.099Z,7.20
2018-11-29T15:43:27.969Z,7.20
2018-11-29T15:45:56.821Z,7.20
2018-11-29T15:48:25.681Z,7.30
2018-11-29T15:50:54.512Z,7.20
2018-11-29T15:53:23.358Z,7.20
2018-11-29T15:55:52.210Z,7.20
2018-11-29T15:58:21.061Z,7.20
2018-11-29T16:00:49.902Z,7.20
2018-11-29T16:03:18.761Z,7.20
2018-11-29T16:05:47.615Z,7.20
2018-11-29T16:08:16.459Z,7.20
2018-11-29T16:10:46.069Z,7.20
2018-11-29T16:13:14.884Z,7.20
2018-11-29T16:15:43.737Z,7.20
2018-11-29T16:18:12.595Z,7.20
2018-11-29T16:20:41.450Z,7.10
2018-11-29T16:23:10.302Z,7.10
2018-11-29T16:25:39.172Z,7.10
2018-11-29T16:28:08.024Z,7.10
2018-11-29T16:30:36.883Z,7.10
2018-11-29T16:33:05.753Z,7.10
2018-11-29T16:35:34.597Z,7.20
2018-11-29T16:38:03.426Z,7.10
2018-11-29T16:40:32.269Z,7.10
2018-11-29T16:43:01.128Z,7.10
2018-11-29T16:45:29.991Z,7.00
2018-11-29T16:47:58.858Z,7.10
2018-11-29T16:50:27.714Z,7.10
2018-11-29T16:52:56.555Z,7.00
2018-11-29T16:55:25.419Z,7.00
2018-11-29T16:57:54.259Z,7.00
2018-11-29T17:02:52.539Z,7.00
2018-11-29T17:05:21.386Z,7.00
2018-11-29T17:07:50.229Z,6.90
2018-11-29T17:10:19.086Z,6.90
2018-11-29T17:12:47.946Z,7.00
2018-11-29T17:15:16.780Z,7.00
2018-11-29T17:17:45.625Z,7.00
2018-11-29T17:20:14.473Z,7.00
2018-11-29T17:22:43.330Z,7.00
2018-11-29T17:25:12.160Z,7.00
2018-11-29T17:27:41.760Z,7.00
2018-11-29T17:30:10.618Z,7.00
2018-11-29T17:32:39.464Z,7.00
2018-11-29T17:35:08.312Z,6.90
2018-11-29T17:37:37.912Z,6.90
2018-11-29T17:40:06.799Z,6.90
2018-11-29T17:42:35.615Z,6.90
2018-11-29T17:45:05.245Z,6.90
2018-11-29T17:47:34.806Z,6.90
2018-11-29T17:50:03.663Z,6.90
2018-11-29T17:52:32.507Z,6.80
2018-11-29T17:55:01.360Z,6.80
2018-11-29T17:57:30.196Z,6.90
2018-11-29T17:59:59.815Z,6.80
2018-11-29T18:02:28.657Z,6.80
2018-11-29T18:04:57.573Z,6.90
2018-11-29T18:07:27.159Z,6.80
2018-11-29T18:09:56.062Z,6.90
2018-11-29T18:12:24.871Z,6.80
2018-11-29T18:14:53.723Z,6.80
2018-11-29T18:17:23.318Z,6.80
2018-11-29T18:19:52.195Z,6.70
2018-11-29T18:22:21.036Z,6.80
2018-11-29T18:24:49.891Z,6.80
2018-11-29T18:27:18.760Z,6.70
2018-11-29T18:29:47.598Z,6.60
2018-11-29T18:32:17.190Z,6.60
2018-11-29T18:34:46.058Z,6.50
2018-11-29T18:37:14.912Z,6.50
2018-11-29T18:39:43.750Z,6.50
2018-11-29T18:42:12.606Z,6.40
2018-11-29T18:44:41.444Z,6.40
2018-11-29T18:47:10.284Z,6.40
2018-11-29T18:49:39.139Z,6.40
2018-11-29T18:52:08.734Z,6.40
2018-11-29T18:54:38.324Z,6.40
2018-11-29T18:57:07.213Z,6.30
2018-11-29T18:59:36.045Z,6.40
2018-11-29T19:02:05.627Z,6.30
2018-11-29T19:04:35.218Z,6.30
2018-11-29T19:07:04.086Z,6.30
2018-11-29T19:09:32.926Z,6.20
2018-11-29T19:12:01.772Z,6.20
2018-11-29T19:14:30.611Z,6.20
2018-11-29T19:16:59.481Z,6.20
2018-11-29T19:19:29.126Z,6.20
2018-11-29T19:21:57.922Z,6.20
2018-11-29T19:24:26.812Z,6.20
2018-11-29T19:26:55.656Z,6.10
2018-11-29T19:29:25.247Z,6.10
2018-11-29T19:34:23.640Z,6.10
2018-11-29T19:36:53.149Z,6.10
2018-11-29T19:39:22.734Z,6.10
2018-11-29T19:41:51.582Z,6.10
2018-11-29T19:44:20.426Z,6.10
2018-11-29T19:46:49.262Z,6.10
2018-11-29T19:49:18.113Z,6.10
2018-11-29T19:51:46.984Z,6.10
2018-11-29T19:54:16.851Z,6.10
2018-11-29T19:56:44.666Z,6.10
2018-11-29T19:59:13.540Z,6.10
2018-11-29T20:01:42.398Z,6.00
2018-11-29T20:04:11.235Z,6.00
2018-11-29T20:06:40.074Z,6.00
2018-11-29T20:09:08.971Z,6.00
2018-11-29T20:11:37.808Z,6.00
2018-11-29T20:14:06.695Z,6.00
2018-11-29T20:16:35.549Z,6.00
2018-11-29T20:19:04.372Z,6.00
2018-11-29T20:21:33.242Z,5.90
2018-11-29T20:24:02.111Z,5.90
2018-11-29T20:26:31.731Z,5.90
2018-11-29T20:28:59.782Z,5.90
2018-11-29T20:31:28.634Z,5.90
2018-11-29T20:33:57.482Z,5.80
2018-11-29T20:36:26.340Z,5.80
2018-11-29T20:38:55.234Z,5.80
2018-11-29T20:41:24.075Z,5.80
2018-11-29T20:43:52.938Z,5.70
2018-11-29T20:46:21.884Z,5.70
2018-11-29T20:48:50.718Z,5.60
2018-11-29T20:51:19.538Z,5.60
2018-11-29T20:53:48.413Z,5.60
2018-11-29T20:56:17.320Z,5.70
2018-11-29T20:58:46.174Z,5.60
2018-11-29T21:01:15.041Z,5.50
2018-11-29T21:03:43.943Z,5.50
2018-11-29T21:06:13.662Z,5.50
2018-11-29T21:08:42.415Z,5.50
2018-11-29T21:11:11.261Z,5.50
2018-11-29T21:13:40.102Z,5.50
2018-11-29T21:16:08.967Z,5.50
2018-11-29T21:18:38.556Z,5.40
2018-11-29T21:21:07.454Z,5.50
2018-11-29T21:23:36.274Z,5.50
2018-11-29T21:26:05.122Z,5.40
2018-11-29T21:28:33.996Z,5.40
2018-11-29T21:31:02.813Z,5.40
2018-11-29T21:33:31.701Z,5.30
2018-11-29T21:36:00.507Z,5.30
2018-11-29T21:38:29.361Z,5.30
2018-11-29T21:40:58.214Z,5.20
2018-11-29T21:43:27.078Z,5.20
2018-11-29T21:45:56.672Z,5.10
2018-11-29T21:48:25.525Z,5.10
2018-11-29T21:50:54.363Z,5.20
2018-11-29T21:53:23.946Z,5.10
2018-11-29T21:58:22.806Z,5.10
2018-11-29T22:00:51.819Z,5.10
2018-11-29T22:03:20.889Z,5.10
2018-11-29T22:08:19.618Z,5.10
2018-11-29T22:10:48.701Z,5.10
2018-11-29T22:13:17.807Z,5.10
2018-11-29T22:15:46.909Z,5.10
2018-11-29T22:18:15.970Z,5.10
2018-11-29T22:20:45.064Z,5.10
2018-11-29T22:23:14.063Z,5.10
2018-11-29T22:25:43.151Z,5.10
2018-11-29T22:28:12.236Z,5.00
2018-11-29T22:30:41.437Z,5.00
2018-11-29T22:33:10.335Z,5.00
2018-11-29T22:35:39.434Z,5.00
2018-11-29T22:38:08.441Z,5.00
2018-11-29T22:40:37.294Z,5.00
2018-11-29T22:43:06.138Z,5.00
2018-11-29T22:45:34.991Z,5.00
2018-11-29T22:48:03.842Z,4.90
2018-11-29T22:50:32.740Z,4.90
2018-11-29T22:53:02.284Z,4.90
2018-11-29T22:55:31.128Z,4.90
2018-11-29T22:58:00.709Z,4.90
2018-11-29T23:00:29.555Z,4.90
2018-11-29T23:02:58.390Z,4.90
2018-11-29T23:05:27.235Z,4.80
2018-11-29T23:07:56.084Z,4.80
2018-11-29T23:10:24.938Z,4.80
2018-11-29T23:12:53.851Z,4.80
2018-11-29T23:15:22.666Z,4.80
2018-11-29T23:17:51.526Z,4.80
2018-11-29T23:20:20.373Z,4.80
2018-11-29T23:22:49.228Z,4.80
2018-11-29T23:25:18.064Z,4.80
2018-11-29T23:27:46.909Z,4.80
2018-11-29T23:30:16.503Z,4.80
2018-11-29T23:32:46.085Z,4.80
2018-11-29T23:35:14.945Z,4.90
2018-11-29T23:37:43.827Z,4.90
2018-11-29T23:40:13.421Z,4.80
2018-11-29T23:42:42.259Z,4.80
2018-11-29T23:45:11.121Z,4.80
2018-11-29T23:47:39.947Z,4.90
2018-11-29T23:50:08.792Z,4.90
2018-11-29T23:52:37.629Z,4.80
2018-11-29T23:55:06.454Z,4.80
2018-11-29T23:57:36.045Z,4.80
